sensor_id;sensor_type;location;lat;lon;timestamp;pressure;altitude;pressure_sealevel;temperature;humidity
50632;BME280;49583;45.590;-122.498;2022-07-06T00:19:33;100797.41;;;25.43;44.42
50632;BME280;49583;45.590;-122.498;2022-07-06T00:22:39;100797.08;;;25.37;44.70
50632;BME280;49583;45.590;-122.498;2022-07-06T00:25:05;100792.55;;;25.34;44.76
50632;BME280;49583;45.590;-122.498;2022-07-06T00:37:12;100772.02;;;25.26;45.25
50632;BME280;49583;45.590;-122.498;2022-07-06T00:46:52;100780.09;;;25.33;44.88
50632;BME280;49583;45.590;-122.498;2022-07-06T00:49:51;100780.55;;;25.33;44.96
50632;BME280;49583;45.590;-122.498;2022-07-06T00:52:16;100780.22;;;25.36;45.24
50632;BME280;49583;45.590;-122.498;2022-07-06T00:54:38;100781.73;;;25.39;45.46
50632;BME280;49583;45.590;-122.498;2022-07-06T00:57:13;100778.00;;;25.40;45.48
50632;BME280;49583;45.590;-122.498;2022-07-06T00:59:53;100778.39;;;25.38;45.39
50632;BME280;49583;45.590;-122.498;2022-07-06T01:06:24;100780.65;;;25.33;46.05
50632;BME280;49583;45.590;-122.498;2022-07-06T01:11:58;100774.48;;;25.33;46.38
50632;BME280;49583;45.590;-122.498;2022-07-06T01:23:25;100781.75;;;25.33;46.41
50632;BME280;49583;45.590;-122.498;2022-07-06T01:28:37;100776.63;;;25.29;46.75
50632;BME280;49583;45.590;-122.498;2022-07-06T01:37:30;100783.20;;;25.14;46.42
50632;BME280;49583;45.590;-122.498;2022-07-06T01:40:37;100786.30;;;25.10;46.57
50632;BME280;49583;45.590;-122.498;2022-07-06T01:43:39;100790.70;;;25.06;47.01
50632;BME280;49583;45.590;-122.498;2022-07-06T01:46:28;100795.73;;;25.02;47.39
50632;BME280;49583;45.590;-122.498;2022-07-06T01:49:37;100797.30;;;24.94;47.70
50632;BME280;49583;45.590;-122.498;2022-07-06T01:52:30;100796.41;;;24.85;47.66
50632;BME280;49583;45.590;-122.498;2022-07-06T01:55:47;100796.70;;;24.81;47.64
50632;BME280;49583;45.590;-122.498;2022-07-06T01:58:41;100797.07;;;24.75;47.47
50632;BME280;49583;45.590;-122.498;2022-07-06T02:09:04;100801.60;;;24.48;47.08
50632;BME280;49583;45.590;-122.498;2022-07-06T02:16:02;100808.02;;;24.31;48.13
50632;BME280;49583;45.590;-122.498;2022-07-06T02:21:30;100818.36;;;24.12;49.43
50632;BME280;49583;45.590;-122.498;2022-07-06T02:24:31;100820.21;;;24.04;50.06
50632;BME280;49583;45.590;-122.498;2022-07-06T02:27:43;100815.88;;;23.92;50.66
50632;BME280;49583;45.590;-122.498;2022-07-06T02:31:11;100811.77;;;23.80;51.41
50632;BME280;49583;45.590;-122.498;2022-07-06T02:34:03;100816.17;;;23.72;51.81
50632;BME280;49583;45.590;-122.498;2022-07-06T02:37:13;100812.80;;;23.60;52.14
50632;BME280;49583;45.590;-122.498;2022-07-06T02:39:54;100817.98;;;23.53;52.48
50632;BME280;49583;45.590;-122.498;2022-07-06T02:42:37;100821.94;;;23.48;53.06
50632;BME280;49583;45.590;-122.498;2022-07-06T02:48:05;100832.68;;;23.40;53.53
50632;BME280;49583;45.590;-122.498;2022-07-06T02:56:35;100847.80;;;23.28;53.98
50632;BME280;49583;45.590;-122.498;2022-07-06T03:02:28;100852.08;;;23.18;54.19
50632;BME280;49583;45.590;-122.498;2022-07-06T03:05:05;100860.65;;;23.16;54.55
50632;BME280;49583;45.590;-122.498;2022-07-06T03:07:17;100861.01;;;23.13;54.69
50632;BME280;49583;45.590;-122.498;2022-07-06T03:09:27;100863.35;;;23.11;54.88
50632;BME280;49583;45.590;-122.498;2022-07-06T03:11:41;100867.84;;;23.11;54.85
50632;BME280;49583;45.590;-122.498;2022-07-06T03:13:57;100870.80;;;23.10;54.99
50632;BME280;49583;45.590;-122.498;2022-07-06T03:16:04;100869.21;;;23.07;55.10
50632;BME280;49583;45.590;-122.498;2022-07-06T03:18:20;100871.11;;;23.05;55.09
50632;BME280;49583;45.590;-122.498;2022-07-06T03:27:46;100862.25;;;22.96;55.63
50632;BME280;49583;45.590;-122.498;2022-07-06T03:38:50;100867.65;;;22.82;57.59
50632;BME280;49583;45.590;-122.498;2022-07-06T03:41:00;100869.65;;;22.79;57.85
50632;BME280;49583;45.590;-122.498;2022-07-06T03:46:16;100873.61;;;22.73;58.41
50632;BME280;49583;45.590;-122.498;2022-07-06T03:51:57;100883.10;;;22.62;58.69
50632;BME280;49583;45.590;-122.498;2022-07-06T04:01:33;100900.70;;;22.34;59.32
50632;BME280;49583;45.590;-122.498;2022-07-06T04:04:34;100901.56;;;22.24;59.45
50632;BME280;49583;45.590;-122.498;2022-07-06T04:06:50;100902.81;;;22.18;59.73
50632;BME280;49583;45.590;-122.498;2022-07-06T04:12:04;100902.30;;;22.09;60.03
50632;BME280;49583;45.590;-122.498;2022-07-06T04:14:31;100904.02;;;22.04;60.30
50632;BME280;49583;45.590;-122.498;2022-07-06T04:17:12;100907.44;;;22.00;60.61
50632;BME280;49583;45.590;-122.498;2022-07-06T04:19:43;100907.91;;;21.97;60.72
50632;BME280;49583;45.590;-122.498;2022-07-06T04:22:25;100912.36;;;21.93;60.68
50632;BME280;49583;45.590;-122.498;2022-07-06T04:24:41;100918.44;;;21.87;60.71
50632;BME280;49583;45.590;-122.498;2022-07-06T04:30:12;100920.20;;;21.80;61.03
50632;BME280;49583;45.590;-122.498;2022-07-06T04:33:02;100923.29;;;21.76;61.22
50632;BME280;49583;45.590;-122.498;2022-07-06T04:35:55;100926.96;;;21.73;61.22
50632;BME280;49583;45.590;-122.498;2022-07-06T04:38:49;100933.05;;;21.70;61.44
50632;BME280;49583;45.590;-122.498;2022-07-06T04:41:17;100935.93;;;21.67;61.50
50632;BME280;49583;45.590;-122.498;2022-07-06T04:43:36;100938.47;;;21.63;61.42
50632;BME280;49583;45.590;-122.498;2022-07-06T04:46:32;100938.80;;;21.58;61.41
50632;BME280;49583;45.590;-122.498;2022-07-06T04:49:05;100940.82;;;21.56;61.65
50632;BME280;49583;45.590;-122.498;2022-07-06T04:51:23;100944.27;;;21.55;61.88
50632;BME280;49583;45.590;-122.498;2022-07-06T04:59:58;100945.95;;;21.46;62.01
50632;BME280;49583;45.590;-122.498;2022-07-06T05:02:27;100946.96;;;21.44;62.16
50632;BME280;49583;45.590;-122.498;2022-07-06T05:04:44;100943.11;;;21.41;62.24
50632;BME280;49583;45.590;-122.498;2022-07-06T05:07:12;100941.41;;;21.38;62.29
50632;BME280;49583;45.590;-122.498;2022-07-06T05:09:23;100941.49;;;21.34;62.43
50632;BME280;49583;45.590;-122.498;2022-07-06T05:11:42;100938.42;;;21.32;62.55
50632;BME280;49583;45.590;-122.498;2022-07-06T05:13:52;100939.77;;;21.29;62.65
50632;BME280;49583;45.590;-122.498;2022-07-06T05:16:03;100938.30;;;21.25;62.77
50632;BME280;49583;45.590;-122.498;2022-07-06T05:18:25;100937.55;;;21.23;62.81
50632;BME280;49583;45.590;-122.498;2022-07-06T05:21:02;100943.77;;;21.19;62.99
50632;BME280;49583;45.590;-122.498;2022-07-06T05:23:16;100948.67;;;21.14;63.16
50632;BME280;49583;45.590;-122.498;2022-07-06T05:25:33;100944.54;;;21.09;63.24
50632;BME280;49583;45.590;-122.498;2022-07-06T05:28:01;100946.61;;;21.04;63.37
50632;BME280;49583;45.590;-122.498;2022-07-06T05:30:14;100941.77;;;20.99;63.58
50632;BME280;49583;45.590;-122.498;2022-07-06T05:32:27;100942.24;;;20.95;63.64
50632;BME280;49583;45.590;-122.498;2022-07-06T05:34:56;100940.79;;;20.92;63.85
50632;BME280;49583;45.590;-122.498;2022-07-06T05:37:38;100941.34;;;20.87;64.10
50632;BME280;49583;45.590;-122.498;2022-07-06T05:39:45;100942.60;;;20.83;64.19
50632;BME280;49583;45.590;-122.498;2022-07-06T05:42:20;100946.44;;;20.77;64.54
50632;BME280;49583;45.590;-122.498;2022-07-06T05:44:38;100946.84;;;20.66;64.84
50632;BME280;49583;45.590;-122.498;2022-07-06T05:46:56;100948.38;;;20.60;65.17
50632;BME280;49583;45.590;-122.498;2022-07-06T05:49:25;100948.34;;;20.52;65.43
50632;BME280;49583;45.590;-122.498;2022-07-06T06:05:40;100958.00;;;20.30;66.38
50632;BME280;49583;45.590;-122.498;2022-07-06T06:08:46;100953.62;;;20.26;66.60
50632;BME280;49583;45.590;-122.498;2022-07-06T06:12:15;100951.27;;;20.23;66.85
50632;BME280;49583;45.590;-122.498;2022-07-06T06:14:25;100955.79;;;20.19;67.04
50632;BME280;49583;45.590;-122.498;2022-07-06T06:17:06;100951.77;;;20.16;67.18
50632;BME280;49583;45.590;-122.498;2022-07-06T06:19:25;100954.63;;;20.16;67.41
50632;BME280;49583;45.590;-122.498;2022-07-06T06:22:20;100954.19;;;20.14;67.67
50632;BME280;49583;45.590;-122.498;2022-07-06T06:24:37;100951.86;;;20.09;67.57
50632;BME280;49583;45.590;-122.498;2022-07-06T06:26:51;100948.48;;;20.06;67.61
50632;BME280;49583;45.590;-122.498;2022-07-06T06:28:57;100944.48;;;20.04;67.71
50632;BME280;49583;45.590;-122.498;2022-07-06T06:31:04;100946.16;;;20.02;67.77
50632;BME280;49583;45.590;-122.498;2022-07-06T06:33:13;100947.45;;;19.99;68.05
50632;BME280;49583;45.590;-122.498;2022-07-06T06:38:17;100949.04;;;19.94;68.16
50632;BME280;49583;45.590;-122.498;2022-07-06T06:43:32;100943.58;;;19.87;68.44
50632;BME280;49583;45.590;-122.498;2022-07-06T06:49:11;100932.08;;;19.84;68.79
50632;BME280;49583;45.590;-122.498;2022-07-06T06:58:09;100935.25;;;19.81;69.29
50632;BME280;49583;45.590;-122.498;2022-07-06T07:04:34;100933.70;;;19.75;69.25
50632;BME280;49583;45.590;-122.498;2022-07-06T07:07:23;100933.27;;;19.72;69.43
50632;BME280;49583;45.590;-122.498;2022-07-06T07:17:08;100942.66;;;19.65;69.74
50632;BME280;49583;45.590;-122.498;2022-07-06T07:23:43;100939.58;;;19.64;69.89
50632;BME280;49583;45.590;-122.498;2022-07-06T07:27:00;100936.23;;;19.65;70.07
50632;BME280;49583;45.590;-122.498;2022-07-06T07:36:53;100932.51;;;19.64;70.25
50632;BME280;49583;45.590;-122.498;2022-07-06T07:50:35;100932.16;;;19.58;70.38
50632;BME280;49583;45.590;-122.498;2022-07-06T08:00:59;100934.61;;;19.53;70.63
50632;BME280;49583;45.590;-122.498;2022-07-06T08:04:13;100935.40;;;19.53;70.83
50632;BME280;49583;45.590;-122.498;2022-07-06T08:17:19;100928.80;;;19.53;71.13
50632;BME280;49583;45.590;-122.498;2022-07-06T08:24:16;100930.23;;;19.53;71.21
50632;BME280;49583;45.590;-122.498;2022-07-06T08:27:18;100929.84;;;19.53;71.26
50632;BME280;49583;45.590;-122.498;2022-07-06T08:49:25;100901.84;;;19.51;71.54
50632;BME280;49583;45.590;-122.498;2022-07-06T08:55:30;100903.73;;;19.52;71.75
50632;BME280;49583;45.590;-122.498;2022-07-06T09:00:32;100902.15;;;19.52;71.89
50632;BME280;49583;45.590;-122.498;2022-07-06T09:02:55;100898.18;;;19.52;71.81
50632;BME280;49583;45.590;-122.498;2022-07-06T09:11:01;100899.42;;;19.49;71.80
50632;BME280;49583;45.590;-122.498;2022-07-06T09:13:39;100903.80;;;19.47;71.70
50632;BME280;49583;45.590;-122.498;2022-07-06T09:21:56;100905.76;;;19.34;71.77
50632;BME280;49583;45.590;-122.498;2022-07-06T09:24:23;100907.52;;;19.31;71.91
50632;BME280;49583;45.590;-122.498;2022-07-06T09:30:16;100905.59;;;19.28;72.00
50632;BME280;49583;45.590;-122.498;2022-07-06T09:32:57;100904.83;;;19.25;72.13
50632;BME280;49583;45.590;-122.498;2022-07-06T09:35:48;100903.16;;;19.23;72.24
50632;BME280;49583;45.590;-122.498;2022-07-06T09:38:21;100903.73;;;19.23;72.23
50632;BME280;49583;45.590;-122.498;2022-07-06T09:57:24;100907.52;;;19.18;72.77
50632;BME280;49583;45.590;-122.498;2022-07-06T10:00:21;100912.91;;;19.17;72.80
50632;BME280;49583;45.590;-122.498;2022-07-06T10:03:21;100915.61;;;19.16;72.92
50632;BME280;49583;45.590;-122.498;2022-07-06T10:06:09;100909.92;;;19.13;72.98
50632;BME280;49583;45.590;-122.498;2022-07-06T10:12:25;100904.48;;;19.12;73.24
50632;BME280;49583;45.590;-122.498;2022-07-06T10:14:48;100901.63;;;19.11;73.36
50632;BME280;49583;45.590;-122.498;2022-07-06T10:17:50;100897.83;;;19.11;73.39
50632;BME280;49583;45.590;-122.498;2022-07-06T10:23:30;100903.79;;;19.09;73.40
50632;BME280;49583;45.590;-122.498;2022-07-06T10:30:41;100903.71;;;19.08;73.59
50632;BME280;49583;45.590;-122.498;2022-07-06T10:40:42;100905.15;;;19.06;73.77
50632;BME280;49583;45.590;-122.498;2022-07-06T10:43:20;100908.96;;;19.07;73.93
50632;BME280;49583;45.590;-122.498;2022-07-06T10:52:50;100905.00;;;19.06;74.13
50632;BME280;49583;45.590;-122.498;2022-07-06T11:01:07;100903.89;;;19.05;74.39
50632;BME280;49583;45.590;-122.498;2022-07-06T11:20:08;100890.80;;;19.00;74.86
50632;BME280;49583;45.590;-122.498;2022-07-06T11:30:00;100886.89;;;19.02;75.29
50632;BME280;49583;45.590;-122.498;2022-07-06T11:36:30;100895.05;;;19.03;75.45
50632;BME280;49583;45.590;-122.498;2022-07-06T11:38:30;100903.70;;;19.03;75.58
50632;BME280;49583;45.590;-122.498;2022-07-06T11:41:07;100899.19;;;19.03;75.58
50632;BME280;49583;45.590;-122.498;2022-07-06T11:50:32;100900.48;;;18.99;75.85
50632;BME280;49583;45.590;-122.498;2022-07-06T11:53:41;100903.45;;;18.95;75.84
50632;BME280;49583;45.590;-122.498;2022-07-06T11:56:09;100908.54;;;18.93;76.00
50632;BME280;49583;45.590;-122.498;2022-07-06T12:04:02;100899.98;;;18.84;76.08
50632;BME280;49583;45.590;-122.498;2022-07-06T12:06:53;100897.41;;;18.80;76.11
50632;BME280;49583;45.590;-122.498;2022-07-06T12:09:15;100899.48;;;18.77;76.17
50632;BME280;49583;45.590;-122.498;2022-07-06T12:11:54;100897.13;;;18.75;76.27
50632;BME280;49583;45.590;-122.498;2022-07-06T12:19:54;100904.30;;;18.71;76.56
50632;BME280;49583;45.590;-122.498;2022-07-06T12:25:04;100907.72;;;18.69;76.88
50632;BME280;49583;45.590;-122.498;2022-07-06T12:27:18;100904.23;;;18.69;76.90
50632;BME280;49583;45.590;-122.498;2022-07-06T12:30:09;100908.27;;;18.69;77.10
50632;BME280;49583;45.590;-122.498;2022-07-06T12:32:30;100906.37;;;18.69;77.01
50632;BME280;49583;45.590;-122.498;2022-07-06T12:34:46;100906.45;;;18.69;77.00
50632;BME280;49583;45.590;-122.498;2022-07-06T12:37:19;100904.86;;;18.69;77.12
50632;BME280;49583;45.590;-122.498;2022-07-06T12:39:59;100905.25;;;18.70;77.06
50632;BME280;49583;45.590;-122.498;2022-07-06T12:45:33;100913.02;;;18.70;77.28
50632;BME280;49583;45.590;-122.498;2022-07-06T12:48:17;100914.84;;;18.70;77.26
50632;BME280;49583;45.590;-122.498;2022-07-06T12:50:38;100914.37;;;18.70;77.33
50632;BME280;49583;45.590;-122.498;2022-07-06T12:52:48;100913.58;;;18.70;77.30
50632;BME280;49583;45.590;-122.498;2022-07-06T12:55:05;100913.34;;;18.69;77.37
50632;BME280;49583;45.590;-122.498;2022-07-06T12:57:24;100919.20;;;18.70;77.52
50632;BME280;49583;45.590;-122.498;2022-07-06T12:59:57;100924.98;;;18.71;77.50
50632;BME280;49583;45.590;-122.498;2022-07-06T13:05:17;100928.71;;;18.70;77.64
50632;BME280;49583;45.590;-122.498;2022-07-06T13:07:51;100930.06;;;18.70;77.54
50632;BME280;49583;45.590;-122.498;2022-07-06T13:20:19;100928.04;;;18.65;77.93
50632;BME280;49583;45.590;-122.498;2022-07-06T13:22:56;100930.73;;;18.66;77.64
50632;BME280;49583;45.590;-122.498;2022-07-06T13:25:23;100935.02;;;18.64;77.58
50632;BME280;49583;45.590;-122.498;2022-07-06T13:27:55;100931.30;;;18.64;77.67
50632;BME280;49583;45.590;-122.498;2022-07-06T13:30:44;100935.04;;;18.63;77.70
50632;BME280;49583;45.590;-122.498;2022-07-06T13:33:14;100937.66;;;18.59;77.58
50632;BME280;49583;45.590;-122.498;2022-07-06T13:35:55;100940.38;;;18.56;77.65
50632;BME280;49583;45.590;-122.498;2022-07-06T13:38:11;100937.60;;;18.54;77.52
50632;BME280;49583;45.590;-122.498;2022-07-06T13:46:34;100943.51;;;18.49;78.03
50632;BME280;49583;45.590;-122.498;2022-07-06T13:49:35;100945.06;;;18.51;78.22
50632;BME280;49583;45.590;-122.498;2022-07-06T13:51:54;100945.36;;;18.54;78.13
50632;BME280;49583;45.590;-122.498;2022-07-06T13:54:21;100946.15;;;18.55;78.19
50632;BME280;49583;45.590;-122.498;2022-07-06T13:57:01;100951.33;;;18.57;78.30
50632;BME280;49583;45.590;-122.498;2022-07-06T13:59:36;100949.02;;;18.58;78.29
50632;BME280;49583;45.590;-122.498;2022-07-06T14:02:31;100959.14;;;18.59;78.19
50632;BME280;49583;45.590;-122.498;2022-07-06T14:08:36;100958.98;;;18.60;78.14
50632;BME280;49583;45.590;-122.498;2022-07-06T14:14:27;100963.73;;;18.59;78.21
50632;BME280;49583;45.590;-122.498;2022-07-06T14:17:12;100958.54;;;18.57;78.19
50632;BME280;49583;45.590;-122.498;2022-07-06T14:19:19;100960.27;;;18.56;78.08
50632;BME280;49583;45.590;-122.498;2022-07-06T14:21:42;100964.45;;;18.55;78.15
50632;BME280;49583;45.590;-122.498;2022-07-06T14:24:24;100965.41;;;18.55;78.24
50632;BME280;49583;45.590;-122.498;2022-07-06T14:26:55;100967.87;;;18.53;78.16
50632;BME280;49583;45.590;-122.498;2022-07-06T14:29:25;100968.50;;;18.53;78.20
50632;BME280;49583;45.590;-122.498;2022-07-06T14:31:39;100968.73;;;18.52;78.09
50632;BME280;49583;45.590;-122.498;2022-07-06T14:34:01;100969.10;;;18.50;78.02
50632;BME280;49583;45.590;-122.498;2022-07-06T14:36:26;100976.16;;;18.50;78.07
50632;BME280;49583;45.590;-122.498;2022-07-06T14:38:33;100976.39;;;18.48;78.09
50632;BME280;49583;45.590;-122.498;2022-07-06T14:40:43;100976.39;;;18.47;78.12
50632;BME280;49583;45.590;-122.498;2022-07-06T14:43:32;100977.90;;;18.45;78.07
50632;BME280;49583;45.590;-122.498;2022-07-06T14:45:56;100981.64;;;18.44;78.15
50632;BME280;49583;45.590;-122.498;2022-07-06T14:48:06;100983.48;;;18.42;78.26
50632;BME280;49583;45.590;-122.498;2022-07-06T14:50:18;100983.01;;;18.41;78.26
50632;BME280;49583;45.590;-122.498;2022-07-06T14:52:25;100979.84;;;18.41;78.36
50632;BME280;49583;45.590;-122.498;2022-07-06T14:54:44;100980.45;;;18.43;78.49
50632;BME280;49583;45.590;-122.498;2022-07-06T14:56:58;100978.14;;;18.46;78.59
50632;BME280;49583;45.590;-122.498;2022-07-06T14:59:14;100982.73;;;18.49;78.52
50632;BME280;49583;45.590;-122.498;2022-07-06T15:01:39;100986.92;;;18.50;78.50
50632;BME280;49583;45.590;-122.498;2022-07-06T15:04:02;100988.25;;;18.50;78.50
50632;BME280;49583;45.590;-122.498;2022-07-06T15:06:13;100997.27;;;18.52;78.65
50632;BME280;49583;45.590;-122.498;2022-07-06T15:08:40;101001.78;;;18.53;78.62
50632;BME280;49583;45.590;-122.498;2022-07-06T15:10:47;101005.59;;;18.54;78.64
50632;BME280;49583;45.590;-122.498;2022-07-06T15:12:54;101004.95;;;18.54;78.64
50632;BME280;49583;45.590;-122.498;2022-07-06T15:15:01;101004.95;;;18.53;78.72
50632;BME280;49583;45.590;-122.498;2022-07-06T15:17:08;101006.94;;;18.53;78.58
50632;BME280;49583;45.590;-122.498;2022-07-06T15:19:15;101006.48;;;18.51;78.68
50632;BME280;49583;45.590;-122.498;2022-07-06T15:21:22;101010.34;;;18.51;78.67
50632;BME280;49583;45.590;-122.498;2022-07-06T15:23:29;101012.12;;;18.50;78.75
50632;BME280;49583;45.590;-122.498;2022-07-06T15:25:36;101012.52;;;18.49;78.71
50632;BME280;49583;45.590;-122.498;2022-07-06T15:27:42;101013.39;;;18.48;78.87
50632;BME280;49583;45.590;-122.498;2022-07-06T15:29:50;101014.96;;;18.50;78.94
50632;BME280;49583;45.590;-122.498;2022-07-06T15:32:07;101017.73;;;18.51;79.16
50632;BME280;49583;45.590;-122.498;2022-07-06T15:34:33;101015.52;;;18.50;78.99
50632;BME280;49583;45.590;-122.498;2022-07-06T15:36:40;101014.86;;;18.51;79.00
50632;BME280;49583;45.590;-122.498;2022-07-06T15:38:53;101015.09;;;18.53;79.09
50632;BME280;49583;45.590;-122.498;2022-07-06T15:44:32;101016.85;;;18.51;78.94
50632;BME280;49583;45.590;-122.498;2022-07-06T15:47:39;101020.52;;;18.50;79.07
50632;BME280;49583;45.590;-122.498;2022-07-06T15:49:56;101018.60;;;18.50;79.21
50632;BME280;49583;45.590;-122.498;2022-07-06T15:52:10;101025.47;;;18.53;79.18
50632;BME280;49583;45.590;-122.498;2022-07-06T15:54:54;101027.21;;;18.53;79.09
50632;BME280;49583;45.590;-122.498;2022-07-06T16:00:17;101026.98;;;18.41;78.28
50632;BME280;49583;45.590;-122.498;2022-07-06T16:03:27;101028.33;;;18.35;78.09
50632;BME280;49583;45.590;-122.498;2022-07-06T16:06:09;101027.66;;;18.34;78.11
50632;BME280;49583;45.590;-122.498;2022-07-06T16:08:37;101023.98;;;18.36;78.12
50632;BME280;49583;45.590;-122.498;2022-07-06T16:10:59;101026.27;;;18.38;78.20
50632;BME280;49583;45.590;-122.498;2022-07-06T16:13:09;101030.30;;;18.41;78.16
50632;BME280;49583;45.590;-122.498;2022-07-06T16:15:16;101029.73;;;18.43;77.96
50632;BME280;49583;45.590;-122.498;2022-07-06T16:17:22;101034.16;;;18.45;77.84
50632;BME280;49583;45.590;-122.498;2022-07-06T16:19:32;101036.46;;;18.46;77.77
50632;BME280;49583;45.590;-122.498;2022-07-06T16:21:41;101038.74;;;18.48;77.63
50632;BME280;49583;45.590;-122.498;2022-07-06T16:23:48;101042.15;;;18.49;77.54
50632;BME280;49583;45.590;-122.498;2022-07-06T16:25:55;101040.41;;;18.49;77.34
50632;BME280;49583;45.590;-122.498;2022-07-06T16:28:20;101042.79;;;18.48;77.18
50632;BME280;49583;45.590;-122.498;2022-07-06T16:30:30;101040.10;;;18.44;76.89
50632;BME280;49583;45.590;-122.498;2022-07-06T16:32:42;101042.11;;;18.41;76.85
50632;BME280;49583;45.590;-122.498;2022-07-06T16:34:57;101045.12;;;18.38;76.87
50632;BME280;49583;45.590;-122.498;2022-07-06T16:37:07;101048.38;;;18.37;76.98
50632;BME280;49583;45.590;-122.498;2022-07-06T16:39:17;101047.77;;;18.34;77.14
50632;BME280;49583;45.590;-122.498;2022-07-06T16:41:56;101047.21;;;18.32;77.01
50632;BME280;49583;45.590;-122.498;2022-07-06T16:45:03;101049.80;;;18.22;76.40
50632;BME280;49583;45.590;-122.498;2022-07-06T16:47:41;101052.51;;;18.14;76.50
50632;BME280;49583;45.590;-122.498;2022-07-06T16:50:28;101049.77;;;18.05;76.49
50632;BME280;49583;45.590;-122.498;2022-07-06T16:52:58;101049.63;;;18.02;76.73
50632;BME280;49583;45.590;-122.498;2022-07-06T16:55:08;101053.59;;;17.99;76.77
50632;BME280;49583;45.590;-122.498;2022-07-06T16:57:22;101056.05;;;17.98;76.82
50632;BME280;49583;45.590;-122.498;2022-07-06T16:59:29;101050.82;;;17.98;77.16
50632;BME280;49583;45.590;-122.498;2022-07-06T17:01:35;101049.55;;;18.00;77.40
50632;BME280;49583;45.590;-122.498;2022-07-06T17:03:42;101047.73;;;18.00;77.50
50632;BME280;49583;45.590;-122.498;2022-07-06T17:05:59;101052.31;;;17.99;77.54
50632;BME280;49583;45.590;-122.498;2022-07-06T17:08:13;101052.56;;;17.98;77.58
50632;BME280;49583;45.590;-122.498;2022-07-06T17:10:24;101046.31;;;17.97;77.72
50632;BME280;49583;45.590;-122.498;2022-07-06T17:12:42;101046.77;;;17.98;77.77
50632;BME280;49583;45.590;-122.498;2022-07-06T17:14:49;101047.89;;;17.99;78.02
50632;BME280;49583;45.590;-122.498;2022-07-06T17:16:56;101048.75;;;18.04;78.05
50632;BME280;49583;45.590;-122.498;2022-07-06T17:19:06;101047.07;;;18.09;78.14
50632;BME280;49583;45.590;-122.498;2022-07-06T17:21:17;101047.14;;;18.12;78.24
50632;BME280;49583;45.590;-122.498;2022-07-06T17:23:24;101044.60;;;18.16;78.20
50632;BME280;49583;45.590;-122.498;2022-07-06T17:25:34;101044.33;;;18.21;78.24
50632;BME280;49583;45.590;-122.498;2022-07-06T17:27:43;101044.63;;;18.26;78.07
50632;BME280;49583;45.590;-122.498;2022-07-06T17:29:58;101040.48;;;18.28;78.07
50632;BME280;49583;45.590;-122.498;2022-07-06T17:32:04;101044.13;;;18.30;78.24
50632;BME280;49583;45.590;-122.498;2022-07-06T17:34:36;101045.67;;;18.37;78.20
50632;BME280;49583;45.590;-122.498;2022-07-06T17:36:54;101045.18;;;18.43;78.19
50632;BME280;49583;45.590;-122.498;2022-07-06T17:39:44;101054.57;;;18.50;78.12
50632;BME280;49583;45.590;-122.498;2022-07-06T17:42:49;101056.55;;;18.56;78.03
50632;BME280;49583;45.590;-122.498;2022-07-06T17:45:11;101060.90;;;18.56;77.62
50632;BME280;49583;45.590;-122.498;2022-07-06T17:47:29;101058.38;;;18.57;77.66
50632;BME280;49583;45.590;-122.498;2022-07-06T17:49:59;101064.15;;;18.59;77.72
50632;BME280;49583;45.590;-122.498;2022-07-06T17:52:06;101065.55;;;18.60;77.84
50632;BME280;49583;45.590;-122.498;2022-07-06T17:54:24;101063.73;;;18.62;77.91
50632;BME280;49583;45.590;-122.498;2022-07-06T17:56:39;101057.88;;;18.62;77.75
50632;BME280;49583;45.590;-122.498;2022-07-06T17:58:57;101061.58;;;18.65;77.76
50632;BME280;49583;45.590;-122.498;2022-07-06T18:01:07;101061.31;;;18.68;77.77
50632;BME280;49583;45.590;-122.498;2022-07-06T18:03:17;101062.17;;;18.72;77.86
50632;BME280;49583;45.590;-122.498;2022-07-06T18:05:23;101059.77;;;18.76;77.85
50632;BME280;49583;45.590;-122.498;2022-07-06T18:07:37;101061.42;;;18.79;77.74
50632;BME280;49583;45.590;-122.498;2022-07-06T18:09:48;101058.61;;;18.83;77.77
50632;BME280;49583;45.590;-122.498;2022-07-06T18:12:05;101060.10;;;18.88;77.63
50632;BME280;49583;45.590;-122.498;2022-07-06T18:14:24;101059.59;;;18.91;77.70
50632;BME280;49583;45.590;-122.498;2022-07-06T18:16:35;101060.20;;;18.96;77.70
50632;BME280;49583;45.590;-122.498;2022-07-06T18:18:54;101057.78;;;19.01;77.56
50632;BME280;49583;45.590;-122.498;2022-07-06T18:21:40;101059.26;;;19.05;77.81
50632;BME280;49583;45.590;-122.498;2022-07-06T18:26:55;101062.95;;;19.12;77.42
50632;BME280;49583;45.590;-122.498;2022-07-06T18:29:02;101066.64;;;19.14;77.32
50632;BME280;49583;45.590;-122.498;2022-07-06T18:31:08;101067.36;;;19.14;77.15
50632;BME280;49583;45.590;-122.498;2022-07-06T18:33:15;101064.81;;;19.14;76.97
50632;BME280;49583;45.590;-122.498;2022-07-06T18:35:25;101062.90;;;19.16;77.00
50632;BME280;49583;45.590;-122.498;2022-07-06T18:37:32;101062.48;;;19.19;77.08
50632;BME280;49583;45.590;-122.498;2022-07-06T18:39:42;101065.79;;;19.21;77.03
50632;BME280;49583;45.590;-122.498;2022-07-06T18:41:52;101063.88;;;19.24;76.89
50632;BME280;49583;45.590;-122.498;2022-07-06T18:44:05;101066.25;;;19.23;76.76
50632;BME280;49583;45.590;-122.498;2022-07-06T18:46:27;101067.77;;;19.22;76.29
50632;BME280;49583;45.590;-122.498;2022-07-06T18:49:14;101067.21;;;19.21;76.41
50632;BME280;49583;45.590;-122.498;2022-07-06T18:52:28;101065.32;;;19.21;76.32